createdAt,value
2017-07-30T00:00:22.180Z,0
2017-07-30T00:01:03.072Z,0
2017-07-30T00:01:43.970Z,0
2017-07-30T00:02:24.865Z,0
2017-07-30T00:03:05.759Z,0
2017-07-30T00:03:46.654Z,0
2017-07-30T00:04:27.561Z,0
2017-07-30T00:05:08.465Z,0
2017-07-30T00:05:49.362Z,0
2017-07-30T00:06:30.257Z,0
2017-07-30T00:07:11.157Z,0
2017-07-30T00:07:52.052Z,0
2017-07-30T00:08:32.944Z,0
2017-07-30T00:09:13.840Z,0
2017-07-30T00:09:54.736Z,0
2017-07-30T00:10:35.628Z,0
2017-07-30T00:11:16.528Z,0
2017-07-30T00:11:57.409Z,0
2017-07-30T00:12:38.301Z,0
2017-07-30T00:13:19.214Z,0
2017-07-30T00:14:00.098Z,0
2017-07-30T00:14:40.992Z,0
2017-07-30T00:15:21.897Z,0
2017-07-30T00:16:02.785Z,0
2017-07-30T00:16:43.676Z,0
2017-07-30T00:17:24.575Z,0
2017-07-30T00:18:05.468Z,0
2017-07-30T00:18:46.362Z,0
2017-07-30T00:19:27.258Z,0
2017-07-30T00:20:08.156Z,0
2017-07-30T00:20:49.048Z,0
2017-07-30T00:21:29.943Z,0
2017-07-30T00:22:10.837Z,0
2017-07-30T00:22:51.745Z,0
2017-07-30T00:23:32.640Z,0
2017-07-30T00:24:13.530Z,0
2017-07-30T00:24:54.424Z,0
2017-07-30T00:25:35.314Z,0
2017-07-30T00:26:16.217Z,0
2017-07-30T00:26:57.122Z,0
2017-07-30T00:27:38.022Z,0
2017-07-30T00:28:18.908Z,0
2017-07-30T00:28:59.797Z,0
2017-07-30T00:29:40.691Z,0
2017-07-30T00:30:21.586Z,0
2017-07-30T00:31:02.472Z,0
2017-07-30T00:31:43.377Z,0
2017-07-30T00:32:24.263Z,0
2017-07-30T00:33:05.160Z,0
2017-07-30T00:33:46.060Z,0
2017-07-30T00:34:26.950Z,0
2017-07-30T00:35:07.846Z,0
2017-07-30T00:35:48.740Z,0
2017-07-30T00:36:29.639Z,0
2017-07-30T00:37:10.515Z,0
2017-07-30T00:37:51.412Z,0
2017-07-30T00:38:32.304Z,0
2017-07-30T00:39:13.207Z,0
2017-07-30T00:39:54.108Z,0
2017-07-30T00:40:34.989Z,0
2017-07-30T00:41:15.886Z,0
2017-07-30T00:41:56.783Z,0
2017-07-30T00:42:37.672Z,0
2017-07-30T00:43:18.584Z,0
2017-07-30T00:43:59.483Z,0
2017-07-30T00:44:40.400Z,0
2017-07-30T00:45:21.303Z,0
2017-07-30T00:46:02.195Z,0
2017-07-30T00:46:43.100Z,0
2017-07-30T00:47:23.985Z,0
2017-07-30T00:48:04.880Z,0
2017-07-30T00:48:45.781Z,0
2017-07-30T00:49:26.662Z,0
2017-07-30T00:50:07.573Z,0
2017-07-30T00:50:48.471Z,0
2017-07-30T00:51:29.366Z,0
2017-07-30T00:52:10.264Z,0
2017-07-30T00:52:51.152Z,0
2017-07-30T00:53:32.046Z,0
2017-07-30T00:55:51.001Z,0
2017-07-30T00:56:31.907Z,0
2017-07-30T00:57:12.796Z,0
2017-07-30T00:57:53.693Z,0
2017-07-30T00:58:34.608Z,0
2017-07-30T00:59:15.475Z,0
2017-07-30T00:59:56.399Z,0
2017-07-30T01:00:37.297Z,0
2017-07-30T01:01:18.193Z,0
2017-07-30T01:01:59.084Z,0
2017-07-30T01:02:39.977Z,0
2017-07-30T01:03:20.882Z,0
2017-07-30T01:04:01.772Z,0
2017-07-30T01:04:42.683Z,0
2017-07-30T01:05:23.568Z,0
2017-07-30T01:06:04.456Z,0
2017-07-30T01:06:45.360Z,0
2017-07-30T01:07:26.256Z,0
2017-07-30T01:08:07.150Z,0
2017-07-30T01:08:48.041Z,0
2017-07-30T01:09:28.932Z,0
2017-07-30T01:10:09.823Z,0
2017-07-30T01:10:50.722Z,0
2017-07-30T01:11:31.617Z,0
2017-07-30T01:12:12.508Z,0
2017-07-30T01:12:53.404Z,0
2017-07-30T01:13:34.293Z,0
2017-07-30T01:14:15.185Z,0
2017-07-30T01:14:56.081Z,0
2017-07-30T01:15:36.975Z,0
2017-07-30T01:16:17.878Z,0
2017-07-30T01:16:58.768Z,0
2017-07-30T01:17:39.661Z,0
2017-07-30T01:18:20.555Z,0
2017-07-30T01:19:01.465Z,0
2017-07-30T01:19:42.350Z,0
2017-07-30T01:20:23.246Z,0
2017-07-30T01:21:04.138Z,0
2017-07-30T01:21:45.020Z,0
2017-07-30T01:22:25.917Z,0
2017-07-30T01:23:06.806Z,0
2017-07-30T01:23:47.693Z,0
2017-07-30T01:24:28.590Z,0
2017-07-30T01:25:09.480Z,0
2017-07-30T01:25:50.362Z,0
2017-07-30T01:26:31.262Z,0
2017-07-30T01:27:12.154Z,0
2017-07-30T01:27:53.042Z,0
2017-07-30T01:28:33.934Z,0
2017-07-30T01:29:14.831Z,0
2017-07-30T01:29:55.722Z,0
2017-07-30T01:30:36.612Z,0
2017-07-30T01:31:17.506Z,0
2017-07-30T01:31:58.393Z,0
2017-07-30T01:32:39.288Z,0
2017-07-30T01:33:20.181Z,0
2017-07-30T01:34:01.078Z,0
2017-07-30T01:34:41.980Z,0
2017-07-30T01:35:22.869Z,0
2017-07-30T01:36:03.767Z,0
2017-07-30T01:36:44.663Z,0
2017-07-30T01:37:25.557Z,0
2017-07-30T01:38:06.505Z,0
2017-07-30T01:38:47.366Z,0
2017-07-30T01:39:28.253Z,0
2017-07-30T01:40:09.149Z,0
2017-07-30T01:40:50.046Z,0
2017-07-30T01:41:30.935Z,0
2017-07-30T01:42:11.834Z,0
2017-07-30T01:42:52.704Z,0
2017-07-30T01:43:33.596Z,0
2017-07-30T01:44:14.507Z,0
2017-07-30T01:44:55.393Z,0
2017-07-30T01:45:36.288Z,0
2017-07-30T01:46:17.179Z,0
2017-07-30T01:46:58.067Z,0
2017-07-30T01:47:38.962Z,0
2017-07-30T01:48:19.863Z,0
2017-07-30T01:49:00.755Z,0
2017-07-30T01:49:41.652Z,0
2017-07-30T01:50:22.551Z,0
2017-07-30T01:51:03.452Z,0
2017-07-30T01:51:44.356Z,0
2017-07-30T01:52:25.245Z,0
2017-07-30T01:53:06.138Z,0
2017-07-30T01:53:47.031Z,0
2017-07-30T01:54:27.919Z,0
2017-07-30T01:55:08.798Z,0
2017-07-30T01:55:49.703Z,0
2017-07-30T01:56:30.585Z,0
2017-07-30T01:57:11.476Z,0
2017-07-30T01:57:52.378Z,0
2017-07-30T01:58:33.270Z,0
2017-07-30T01:59:14.166Z,0
2017-07-30T01:59:55.065Z,0
2017-07-30T02:00:35.956Z,0
2017-07-30T02:01:16.857Z,0
2017-07-30T02:01:57.737Z,0
2017-07-30T02:02:38.630Z,0
2017-07-30T02:03:19.540Z,0
2017-07-30T02:04:00.430Z,0
2017-07-30T02:04:41.319Z,0
2017-07-30T02:05:22.217Z,0
2017-07-30T02:06:03.104Z,0
2017-07-30T02:06:43.993Z,0
2017-07-30T02:07:24.896Z,0
2017-07-30T02:08:05.779Z,0
2017-07-30T02:08:46.677Z,0
2017-07-30T02:09:27.573Z,0
2017-07-30T02:10:08.456Z,0
2017-07-30T02:10:49.339Z,0
2017-07-30T02:11:30.246Z,0
2017-07-30T02:12:11.134Z,0
2017-07-30T02:12:52.014Z,0
2017-07-30T02:13:32.912Z,0
2017-07-30T02:14:13.822Z,0
2017-07-30T02:14:54.678Z,0
2017-07-30T02:15:35.556Z,0
2017-07-30T02:16:16.452Z,0
2017-07-30T02:16:57.333Z,0
2017-07-30T02:17:38.220Z,0
2017-07-30T02:18:19.116Z,0
2017-07-30T02:19:00.008Z,0
2017-07-30T02:19:40.885Z,0
2017-07-30T02:20:21.811Z,0
2017-07-30T02:21:02.699Z,0
2017-07-30T02:21:43.583Z,0
2017-07-30T02:22:24.477Z,0
2017-07-30T02:23:05.383Z,0
2017-07-30T02:23:46.258Z,0
2017-07-30T02:24:27.167Z,0
2017-07-30T02:25:08.072Z,0
2017-07-30T02:25:48.964Z,0
2017-07-30T02:26:29.856Z,0
2017-07-30T02:27:10.747Z,0
2017-07-30T02:27:51.641Z,0
2017-07-30T02:28:32.540Z,0
2017-07-30T02:29:13.434Z,0
2017-07-30T02:29:54.331Z,0
2017-07-30T02:30:36.744Z,0
2017-07-30T02:31:17.636Z,0
2017-07-30T02:31:58.535Z,0
2017-07-30T02:32:39.437Z,0
2017-07-30T02:33:20.315Z,0
2017-07-30T02:34:01.220Z,0
2017-07-30T02:34:42.111Z,0
2017-07-30T02:35:22.993Z,0
2017-07-30T02:36:03.889Z,0
2017-07-30T02:36:44.786Z,0
2017-07-30T02:37:25.668Z,0
2017-07-30T02:38:06.578Z,0
2017-07-30T02:38:47.462Z,0
2017-07-30T02:39:28.354Z,0
2017-07-30T02:40:09.263Z,0
2017-07-30T02:40:50.138Z,0
2017-07-30T02:41:31.028Z,4
2017-07-30T02:42:11.925Z,4
2017-07-30T02:42:52.813Z,4
2017-07-30T02:43:33.704Z,4
2017-07-30T02:44:14.598Z,0
2017-07-30T02:44:55.485Z,0
2017-07-30T02:45:36.375Z,0
2017-07-30T02:46:17.291Z,4
2017-07-30T02:46:58.177Z,4
2017-07-30T02:47:39.068Z,4
2017-07-30T02:48:19.995Z,0
2017-07-30T02:49:00.870Z,4
2017-07-30T02:49:41.767Z,4
2017-07-30T02:50:22.656Z,4
2017-07-30T02:51:03.555Z,4
2017-07-30T02:51:44.443Z,4
2017-07-30T02:52:25.335Z,8
2017-07-30T02:53:06.228Z,4
2017-07-30T02:53:47.122Z,8
2017-07-30T02:54:28.012Z,8
2017-07-30T02:55:08.912Z,8
2017-07-30T02:55:49.809Z,8
2017-07-30T02:56:30.700Z,8
2017-07-30T02:57:11.602Z,12
2017-07-30T02:57:52.518Z,12
2017-07-30T02:58:33.389Z,12
2017-07-30T02:59:14.290Z,12
2017-07-30T02:59:55.181Z,16
2017-07-30T03:00:36.064Z,20
2017-07-30T03:01:16.953Z,20
2017-07-30T03:01:57.848Z,20
2017-07-30T03:02:38.736Z,20
2017-07-30T03:03:19.626Z,24
2017-07-30T03:04:00.521Z,24
2017-07-30T03:04:41.420Z,24
2017-07-30T03:05:22.317Z,28
2017-07-30T03:06:03.202Z,32
2017-07-30T03:06:44.098Z,36
2017-07-30T03:07:25.001Z,36
2017-07-30T03:08:05.892Z,40
2017-07-30T03:08:46.781Z,44
2017-07-30T03:09:27.680Z,48
2017-07-30T03:10:08.566Z,48
2017-07-30T03:10:49.474Z,56
2017-07-30T03:11:30.358Z,56
2017-07-30T03:12:11.248Z,64
2017-07-30T03:12:52.136Z,68
2017-07-30T03:13:33.035Z,76
2017-07-30T03:14:13.927Z,80
2017-07-30T03:14:54.822Z,84
2017-07-30T03:15:35.716Z,88
2017-07-30T03:16:16.608Z,96
2017-07-30T03:16:57.505Z,100
2017-07-30T03:17:38.394Z,108
2017-07-30T03:18:19.302Z,112
2017-07-30T03:19:00.191Z,116
2017-07-30T03:19:41.083Z,124
2017-07-30T03:20:21.975Z,132
2017-07-30T03:21:02.873Z,140
2017-07-30T03:21:43.762Z,152
2017-07-30T03:22:24.654Z,156
2017-07-30T03:23:05.549Z,164
2017-07-30T03:23:46.441Z,172
2017-07-30T03:24:27.331Z,180
2017-07-30T03:25:08.216Z,188
2017-07-30T03:25:49.116Z,196
2017-07-30T03:26:30.007Z,208
2017-07-30T03:27:10.896Z,216
2017-07-30T03:27:51.776Z,228
2017-07-30T03:28:32.671Z,236
2017-07-30T03:29:13.571Z,248
2017-07-30T03:29:54.452Z,260
2017-07-30T03:30:35.357Z,268
2017-07-30T03:31:16.257Z,284
2017-07-30T03:31:57.154Z,300
2017-07-30T03:32:38.056Z,312
2017-07-30T03:33:18.943Z,328
2017-07-30T03:33:59.828Z,344
2017-07-30T03:34:40.717Z,360
2017-07-30T03:35:21.605Z,380
2017-07-30T03:36:02.500Z,400
2017-07-30T03:36:43.408Z,432
2017-07-30T03:37:24.283Z,468
2017-07-30T03:38:05.177Z,500
2017-07-30T03:38:46.057Z,536
2017-07-30T03:39:26.945Z,568
2017-07-30T03:40:07.842Z,580
2017-07-30T03:40:48.735Z,588
2017-07-30T03:41:29.627Z,596
2017-07-30T03:42:10.527Z,588
2017-07-30T03:42:51.422Z,588
2017-07-30T03:43:32.308Z,588
2017-07-30T03:44:13.209Z,592
2017-07-30T03:44:54.102Z,592
2017-07-30T03:45:34.991Z,608
2017-07-30T03:46:15.879Z,620
2017-07-30T03:46:56.777Z,632
2017-07-30T03:47:37.672Z,644
2017-07-30T03:48:18.556Z,656
2017-07-30T03:48:59.459Z,672
2017-07-30T03:49:40.348Z,680
2017-07-30T03:50:21.234Z,684
2017-07-30T03:51:02.128Z,676
2017-07-30T03:51:43.019Z,676
2017-07-30T03:52:23.918Z,676
2017-07-30T03:53:04.806Z,676
2017-07-30T03:53:45.697Z,680
2017-07-30T03:54:26.587Z,696
2017-07-30T03:55:07.483Z,708
2017-07-30T03:55:48.378Z,732
2017-07-30T03:56:29.268Z,748
2017-07-30T03:57:10.164Z,768
2017-07-30T03:57:51.058Z,788
2017-07-30T03:58:31.953Z,808
2017-07-30T03:59:12.867Z,816
2017-07-30T03:59:53.760Z,824
2017-07-30T04:00:34.660Z,832
2017-07-30T04:01:15.552Z,844
2017-07-30T04:01:56.449Z,864
2017-07-30T04:02:37.340Z,888
2017-07-30T04:03:18.230Z,908
2017-07-30T04:03:59.123Z,928
2017-07-30T04:04:40.014Z,944
2017-07-30T04:05:20.909Z,952
2017-07-30T04:06:01.793Z,976
2017-07-30T04:06:42.676Z,992
2017-07-30T04:07:23.571Z,1020
2017-07-30T04:08:04.455Z,1048
2017-07-30T04:08:45.351Z,1088
2017-07-30T04:09:26.242Z,1116
2017-07-30T04:10:07.134Z,1152
2017-07-30T04:10:48.043Z,1176
2017-07-30T04:11:28.940Z,1200
2017-07-30T04:12:09.888Z,1240
2017-07-30T04:12:50.763Z,1248
2017-07-30T04:13:31.657Z,1260
2017-07-30T04:14:12.559Z,1284
2017-07-30T04:16:21.582Z,1432
2017-07-30T04:17:02.464Z,1492
2017-07-30T04:17:43.352Z,1600
2017-07-30T04:18:24.250Z,1732
2017-07-30T04:19:05.146Z,1828
2017-07-30T04:19:46.033Z,1892
2017-07-30T04:20:26.929Z,1924
2017-07-30T04:21:07.816Z,1924
2017-07-30T04:21:48.700Z,1868
2017-07-30T04:22:29.593Z,1768
2017-07-30T04:23:10.477Z,1684
2017-07-30T04:23:51.360Z,1660
2017-07-30T04:24:32.256Z,1736
2017-07-30T04:25:13.152Z,1880
2017-07-30T04:25:54.043Z,2064
2017-07-30T04:26:34.947Z,2188
2017-07-30T04:27:15.835Z,2272
2017-07-30T04:27:56.728Z,2316
2017-07-30T04:28:37.648Z,2448
2017-07-30T04:29:18.523Z,2556
2017-07-30T04:29:59.418Z,2500
2017-07-30T04:30:40.324Z,2416
2017-07-30T04:31:21.200Z,2236
2017-07-30T04:32:02.094Z,2072
2017-07-30T04:32:42.994Z,2020
2017-07-30T04:33:23.897Z,2028
2017-07-30T04:34:04.771Z,2116
2017-07-30T04:34:45.669Z,2188
2017-07-30T04:35:26.555Z,2224
2017-07-30T04:36:07.444Z,2276
2017-07-30T04:36:48.343Z,2232
2017-07-30T04:37:29.231Z,2136
2017-07-30T04:38:10.130Z,2016
2017-07-30T04:38:51.024Z,1928
2017-07-30T04:39:31.902Z,1904
2017-07-30T04:40:12.789Z,1832
2017-07-30T04:40:53.703Z,1772
2017-07-30T04:41:34.617Z,1760
2017-07-30T04:42:15.515Z,1740
2017-07-30T04:42:56.398Z,1704
2017-07-30T04:43:37.289Z,1748
2017-07-30T04:44:18.178Z,1876
2017-07-30T04:44:59.095Z,1996
2017-07-30T04:45:40.004Z,2180
2017-07-30T04:46:20.890Z,2292
2017-07-30T04:47:01.787Z,2420
2017-07-30T04:47:42.686Z,2524
2017-07-30T04:48:23.570Z,2528
2017-07-30T04:49:04.465Z,2496
2017-07-30T04:49:45.369Z,2448
2017-07-30T04:50:26.240Z,2416
2017-07-30T04:51:07.166Z,2328
2017-07-30T04:51:48.058Z,2200
2017-07-30T04:52:28.936Z,2048
2017-07-30T04:53:09.860Z,2004
2017-07-30T04:53:50.757Z,1952
2017-07-30T04:54:31.649Z,1828
2017-07-30T04:55:12.541Z,1736
2017-07-30T04:55:53.422Z,1712
2017-07-30T04:56:34.327Z,1704
2017-07-30T04:57:15.212Z,1716
2017-07-30T04:57:56.094Z,1756
2017-07-30T04:58:37.003Z,1932
2017-07-30T04:59:17.890Z,1968
2017-07-30T04:59:58.772Z,2040
2017-07-30T05:00:39.678Z,2056
2017-07-30T05:01:21.427Z,2072
2017-07-30T05:02:02.338Z,2084
2017-07-30T05:02:43.225Z,2108
2017-07-30T05:03:24.116Z,2136
2017-07-30T05:04:05.017Z,2148
2017-07-30T05:04:45.904Z,2144
2017-07-30T05:05:26.794Z,2132
2017-07-30T05:06:07.687Z,2124
2017-07-30T05:06:48.582Z,2124
2017-07-30T05:07:29.472Z,2136
2017-07-30T05:08:10.367Z,2152
2017-07-30T05:08:51.259Z,2164
2017-07-30T05:09:32.147Z,2180
2017-07-30T05:10:13.044Z,2196
2017-07-30T05:10:53.931Z,2212
2017-07-30T05:11:34.817Z,2228
2017-07-30T05:12:15.700Z,2252
2017-07-30T05:12:56.589Z,2272
2017-07-30T05:13:37.487Z,2288
2017-07-30T05:14:18.375Z,2312
2017-07-30T05:14:59.266Z,2328
2017-07-30T05:15:40.163Z,2348
2017-07-30T05:16:21.062Z,2372
2017-07-30T05:17:01.950Z,2392
2017-07-30T05:17:42.842Z,2412
2017-07-30T05:18:23.726Z,2436
2017-07-30T05:19:04.615Z,2456
2017-07-30T05:19:45.508Z,2472
2017-07-30T05:20:26.395Z,2500
2017-07-30T05:21:07.284Z,2528
2017-07-30T05:21:48.180Z,2544
2017-07-30T05:22:29.073Z,2568
2017-07-30T05:23:09.959Z,2564
2017-07-30T05:23:50.867Z,2516
2017-07-30T05:24:31.745Z,2512
2017-07-30T05:25:12.639Z,2432
2017-07-30T05:25:53.536Z,2532
2017-07-30T05:26:34.433Z,2548
2017-07-30T05:27:15.329Z,2572
2017-07-30T05:27:56.244Z,2584
2017-07-30T05:28:37.122Z,2608
2017-07-30T05:29:18.005Z,2620
2017-07-30T05:29:58.900Z,2636
2017-07-30T05:30:39.786Z,2656
2017-07-30T05:31:20.675Z,2680
2017-07-30T05:32:01.578Z,2712
2017-07-30T05:32:42.459Z,2760
2017-07-30T05:33:23.354Z,2804
2017-07-30T05:34:04.251Z,2832
2017-07-30T05:34:45.130Z,2848
2017-07-30T05:35:26.024Z,2868
2017-07-30T05:36:06.936Z,2880
2017-07-30T05:36:47.823Z,2880
2017-07-30T05:37:28.723Z,2884
2017-07-30T05:38:09.627Z,2952
2017-07-30T05:38:50.516Z,2980
2017-07-30T05:39:31.420Z,3060
2017-07-30T05:40:12.423Z,3072
2017-07-30T05:40:53.304Z,3052
2017-07-30T05:41:34.199Z,3028
2017-07-30T05:42:15.084Z,3020
2017-07-30T05:42:55.980Z,3028
2017-07-30T05:43:36.874Z,3044
2017-07-30T05:44:17.758Z,3064
2017-07-30T05:44:58.704Z,3096
2017-07-30T05:45:39.619Z,3124
2017-07-30T05:46:20.514Z,3144
2017-07-30T05:47:01.777Z,3148
2017-07-30T05:47:42.697Z,3164
2017-07-30T05:48:23.597Z,3184
2017-07-30T05:49:04.476Z,3204
2017-07-30T05:49:45.373Z,3224
2017-07-30T05:50:26.270Z,3252
2017-07-30T05:51:07.157Z,3276
2017-07-30T05:51:48.040Z,3292
2017-07-30T05:52:28.945Z,3312
2017-07-30T05:53:09.872Z,3332
2017-07-30T05:53:50.795Z,3360
2017-07-30T05:54:31.677Z,3384
2017-07-30T05:55:12.581Z,3412
2017-07-30T05:55:53.482Z,3444
2017-07-30T05:56:34.373Z,3464
2017-07-30T05:57:15.262Z,3500
2017-07-30T05:57:56.152Z,3528
2017-07-30T05:58:37.048Z,3560
2017-07-30T05:59:17.947Z,3592
2017-07-30T05:59:58.846Z,3620
2017-07-30T06:00:39.723Z,3640
2017-07-30T06:01:20.623Z,3660
2017-07-30T06:02:01.510Z,3688
2017-07-30T06:02:42.401Z,3708
2017-07-30T06:03:23.299Z,3732
2017-07-30T06:04:04.194Z,3768
2017-07-30T06:04:45.084Z,3796
2017-07-30T06:05:25.979Z,3828
2017-07-30T06:06:06.871Z,3856
2017-07-30T06:06:47.779Z,3884
2017-07-30T06:07:28.660Z,3912
2017-07-30T06:08:09.553Z,3936
2017-07-30T06:08:50.442Z,3972
2017-07-30T06:09:31.332Z,4008
2017-07-30T06:10:12.224Z,4052
2017-07-30T06:10:53.128Z,4112
2017-07-30T06:11:34.007Z,4160
2017-07-30T06:12:14.897Z,4220
2017-07-30T06:12:55.799Z,4260
2017-07-30T06:13:36.700Z,4324
2017-07-30T06:14:17.581Z,4396
2017-07-30T06:14:58.477Z,4468
2017-07-30T06:15:39.366Z,4556
2017-07-30T06:16:20.262Z,4640
2017-07-30T06:17:01.163Z,4748
2017-07-30T06:17:42.079Z,4840
2017-07-30T06:18:22.979Z,4956
2017-07-30T06:19:03.873Z,5072
2017-07-30T06:19:44.770Z,5196
2017-07-30T06:20:25.666Z,5328
2017-07-30T06:21:06.560Z,5468
2017-07-30T06:21:47.461Z,5612
2017-07-30T06:22:28.371Z,5756
2017-07-30T06:23:09.257Z,5904
2017-07-30T06:23:50.155Z,6076
2017-07-30T06:24:31.048Z,6264
2017-07-30T06:25:11.955Z,6488
2017-07-30T06:25:52.852Z,6744
2017-07-30T06:26:33.742Z,7004
2017-07-30T06:27:14.642Z,7284
2017-07-30T06:27:55.537Z,7556
2017-07-30T06:28:36.431Z,7800
2017-07-30T06:29:17.337Z,8020
2017-07-30T06:29:58.223Z,8220
2017-07-30T06:30:39.125Z,8420
2017-07-30T06:31:20.079Z,8636
2017-07-30T06:32:00.924Z,8804
2017-07-30T06:32:41.824Z,8968
2017-07-30T06:33:22.712Z,9104
2017-07-30T06:34:03.603Z,9232
2017-07-30T06:34:44.503Z,9360
2017-07-30T06:35:25.407Z,9556
2017-07-30T06:36:06.293Z,9740
2017-07-30T06:36:47.171Z,9844
2017-07-30T06:37:28.061Z,9952
2017-07-30T06:38:08.964Z,10040
2017-07-30T06:38:49.828Z,10100
2017-07-30T06:39:30.706Z,10168
2017-07-30T06:40:11.573Z,10216
2017-07-30T06:40:52.432Z,10260
2017-07-30T06:41:33.343Z,10328
2017-07-30T06:42:14.222Z,10380
2017-07-30T06:42:55.089Z,10420
2017-07-30T06:43:35.971Z,10476
2017-07-30T06:44:16.872Z,10528
2017-07-30T06:44:57.748Z,10564
2017-07-30T06:45:38.636Z,10596
2017-07-30T06:46:19.534Z,10624
2017-07-30T06:47:00.575Z,10652
2017-07-30T06:47:41.478Z,10652
2017-07-30T06:48:22.356Z,10660
2017-07-30T06:49:03.221Z,10656
2017-07-30T06:49:44.099Z,10656
2017-07-30T06:50:25.004Z,10652
2017-07-30T06:51:05.881Z,10672
2017-07-30T06:52:44.363Z,10688
2017-07-30T06:53:25.275Z,10716
2017-07-30T06:54:06.186Z,10704
2017-07-30T06:54:47.065Z,10712
2017-07-30T06:55:27.934Z,10724
2017-07-30T06:56:08.861Z,10744
2017-07-30T06:56:49.740Z,10764
2017-07-30T06:57:30.659Z,10784
2017-07-30T06:58:11.584Z,10804
2017-07-30T06:58:52.478Z,10816
2017-07-30T06:59:33.388Z,10828
2017-07-30T07:00:14.308Z,10844
2017-07-30T07:00:55.204Z,10864
2017-07-30T07:01:36.071Z,10880
2017-07-30T07:02:16.983Z,10908
2017-07-30T07:02:57.856Z,10932
2017-07-30T07:03:38.761Z,10952
2017-07-30T07:04:19.669Z,10972
2017-07-30T07:05:00.557Z,10996
2017-07-30T07:05:41.435Z,11012
2017-07-30T07:06:22.341Z,11044
2017-07-30T07:07:03.227Z,11084
2017-07-30T07:07:44.160Z,11136
2017-07-30T07:08:25.060Z,11208
2017-07-30T07:09:05.965Z,11296
2017-07-30T07:09:46.859Z,11428
2017-07-30T07:10:27.747Z,11668
2017-07-30T07:11:08.654Z,12004
2017-07-30T07:11:49.569Z,12652
2017-07-30T07:12:30.480Z,15808
2017-07-30T07:13:11.356Z,23872
2017-07-30T07:13:52.238Z,33024
2017-07-30T07:14:33.133Z,40384
2017-07-30T07:15:14.028Z,43680
2017-07-30T07:15:54.924Z,46560
2017-07-30T07:16:35.853Z,50592
2017-07-30T07:17:16.760Z,52768
2017-07-30T07:17:57.688Z,53792
2017-07-30T07:18:38.605Z,55168
2017-07-30T07:19:19.484Z,53664
2017-07-30T07:20:00.424Z,49056
2017-07-30T07:20:41.298Z,47200
2017-07-30T07:21:22.190Z,48096
2017-07-30T07:22:03.101Z,52704
2017-07-30T07:22:44.009Z,54048
2017-07-30T07:23:24.917Z,53376
2017-07-30T07:24:05.811Z,52064
2017-07-30T07:24:46.711Z,50912
2017-07-30T07:25:27.610Z,48352
2017-07-30T07:26:08.506Z,47616
2017-07-30T07:26:49.402Z,48736
2017-07-30T07:27:30.295Z,51680
2017-07-30T07:28:11.202Z,54016
2017-07-30T07:28:52.101Z,55296
2017-07-30T07:29:32.999Z,58720
2017-07-30T07:30:13.889Z,60160
2017-07-30T07:30:54.775Z,62464
2017-07-30T07:31:35.676Z,62240
2017-07-30T07:32:16.588Z,62304
2017-07-30T07:32:57.467Z,61920
2017-07-30T07:33:38.354Z,60192
2017-07-30T07:34:19.270Z,58496
2017-07-30T07:35:00.159Z,55424
2017-07-30T07:35:41.067Z,53920
2017-07-30T07:36:21.949Z,53792
2017-07-30T07:37:02.850Z,54976
2017-07-30T07:37:43.749Z,57824
2017-07-30T07:38:24.636Z,60192
2017-07-30T07:39:05.540Z,62848
2017-07-30T07:39:46.448Z,65152
2017-07-30T07:40:27.341Z,262140
2017-07-30T07:41:08.244Z,262140
2017-07-30T07:41:49.154Z,69664
2017-07-30T07:42:30.059Z,68224
2017-07-30T07:43:10.958Z,67488
2017-07-30T07:43:51.863Z,64768
2017-07-30T07:44:32.768Z,60224
2017-07-30T07:45:13.667Z,55104
2017-07-30T07:45:54.569Z,54048
2017-07-30T07:46:35.468Z,56512
2017-07-30T07:47:16.388Z,62560
2017-07-30T07:47:57.276Z,64736
2017-07-30T07:48:38.192Z,59328
2017-07-30T07:49:19.082Z,47296
2017-07-30T07:49:59.992Z,30880
2017-07-30T07:50:40.898Z,19136
2017-07-30T07:51:21.822Z,12508
2017-07-30T07:52:02.724Z,11736
2017-07-30T07:52:43.618Z,11572
2017-07-30T07:53:24.523Z,11500
2017-07-30T07:54:05.424Z,11424
2017-07-30T07:54:46.320Z,11424
2017-07-30T07:55:27.209Z,11348
2017-07-30T07:56:08.115Z,11324
2017-07-30T07:56:49.017Z,11304
2017-07-30T07:57:29.918Z,11292
2017-07-30T07:58:10.803Z,11280
2017-07-30T07:58:51.721Z,11276
2017-07-30T07:59:32.637Z,11268
2017-07-30T08:01:26.305Z,11328
2017-07-30T08:02:07.203Z,11360
2017-07-30T08:02:48.116Z,11372
2017-07-30T08:03:29.004Z,11408
2017-07-30T08:04:09.926Z,11448
2017-07-30T08:04:50.830Z,11496
2017-07-30T08:05:31.718Z,11556
2017-07-30T08:06:12.613Z,11620
2017-07-30T08:06:53.520Z,11688
2017-07-30T08:07:34.429Z,11880
2017-07-30T08:08:15.327Z,12200
2017-07-30T08:08:56.247Z,14784
2017-07-30T08:09:37.166Z,30112
2017-07-30T08:10:18.064Z,46560
2017-07-30T08:10:58.956Z,59424
2017-07-30T08:11:39.864Z,65504
2017-07-30T08:12:20.763Z,73280
2017-07-30T08:13:01.670Z,84544
2017-07-30T08:13:42.561Z,82112
2017-07-30T08:14:23.457Z,76384
2017-07-30T08:15:04.379Z,74848
2017-07-30T08:15:45.324Z,76608
2017-07-30T08:16:26.242Z,83040
2017-07-30T08:17:07.178Z,84960
2017-07-30T08:17:48.132Z,82912
2017-07-30T08:18:29.095Z,78112
2017-07-30T08:19:10.008Z,76160
2017-07-30T08:19:50.910Z,75584
2017-07-30T08:20:31.835Z,75936
2017-07-30T08:21:12.728Z,77920
2017-07-30T08:21:53.638Z,79456
2017-07-30T08:22:34.540Z,72864
2017-07-30T08:23:15.451Z,69856
2017-07-30T08:23:56.328Z,72096
2017-07-30T08:25:50.068Z,84704
2017-07-30T08:26:30.972Z,86464
2017-07-30T08:27:11.861Z,82720
2017-07-30T08:27:52.779Z,79200
2017-07-30T08:28:33.693Z,77920
2017-07-30T08:29:14.612Z,78080
2017-07-30T08:29:55.515Z,74432
2017-07-30T08:30:36.427Z,74144
2017-07-30T08:31:17.333Z,73952
2017-07-30T08:31:58.264Z,74432
2017-07-30T08:32:39.201Z,75488
2017-07-30T08:33:20.109Z,77280
2017-07-30T08:34:01.015Z,78976
2017-07-30T08:34:41.925Z,81728
2017-07-30T08:35:22.850Z,83936
2017-07-30T08:36:03.752Z,85504
2017-07-30T08:36:44.684Z,262140
2017-07-30T08:37:25.608Z,262140
2017-07-30T08:38:06.546Z,262140
2017-07-30T08:38:47.458Z,262140
2017-07-30T08:39:28.378Z,262140
2017-07-30T08:40:09.296Z,262140
2017-07-30T08:40:50.215Z,262140
2017-07-30T08:41:31.106Z,262140
2017-07-30T08:43:40.380Z,262140
2017-07-30T08:44:21.294Z,262140
2017-07-30T08:45:02.203Z,262140
2017-07-30T08:45:43.119Z,262140
2017-07-30T08:46:24.038Z,262140
2017-07-30T08:47:04.949Z,262140
2017-07-30T08:47:45.849Z,262140
2017-07-30T08:48:26.746Z,262140
2017-07-30T08:49:07.667Z,262140
2017-07-30T08:49:48.574Z,262140
2017-07-30T08:50:29.494Z,262140
2017-07-30T08:51:10.401Z,262140
2017-07-30T08:51:51.321Z,262140
2017-07-30T08:52:32.237Z,262140
2017-07-30T08:53:13.145Z,262140
2017-07-30T08:53:54.093Z,262140
2017-07-30T08:54:34.995Z,69568
2017-07-30T08:55:15.928Z,74112
2017-07-30T08:55:56.819Z,75520
2017-07-30T08:56:37.725Z,75872
2017-07-30T08:57:18.626Z,70944
2017-07-30T08:57:59.554Z,262140
2017-07-30T08:58:40.450Z,262140
2017-07-30T08:59:21.389Z,262140
2017-07-30T09:00:02.285Z,262140
2017-07-30T09:00:43.183Z,262140
2017-07-30T09:01:24.076Z,262140
2017-07-30T09:02:04.983Z,262140
2017-07-30T09:02:45.916Z,262140
2017-07-30T09:03:26.796Z,262140
2017-07-30T09:04:07.686Z,262140
2017-07-30T09:04:48.581Z,262140
2017-07-30T09:05:29.476Z,262140
2017-07-30T09:06:10.372Z,262140
2017-07-30T09:06:51.260Z,262140
2017-07-30T09:07:32.162Z,262140
2017-07-30T09:08:13.054Z,262140
2017-07-30T09:08:53.963Z,262140
2017-07-30T09:09:34.852Z,262140
2017-07-30T09:10:15.767Z,262140
2017-07-30T09:10:56.674Z,262140
2017-07-30T09:11:37.566Z,262140
2017-07-30T09:12:18.474Z,262140
2017-07-30T09:12:59.392Z,262140
2017-07-30T09:13:40.288Z,262140
2017-07-30T09:14:21.181Z,262140
2017-07-30T09:15:02.107Z,262140
2017-07-30T09:15:43.039Z,262140
2017-07-30T09:17:57.279Z,262140
2017-07-30T09:18:38.196Z,262140
2017-07-30T09:19:19.090Z,262140
2017-07-30T09:20:00.008Z,262140
2017-07-30T09:20:40.903Z,262140
2017-07-30T09:21:21.809Z,262140
2017-07-30T09:22:02.716Z,262140
2017-07-30T09:22:43.626Z,262140
2017-07-30T09:23:24.530Z,262140
2017-07-30T09:24:05.467Z,262140
2017-07-30T09:24:46.354Z,262140
2017-07-30T09:25:27.257Z,262140
2017-07-30T09:26:08.149Z,262140
2017-07-30T09:26:49.067Z,262140
2017-07-30T09:27:29.996Z,262140